Airport View

Enter AWOS ICAO identifier for current METAR.

ex. KFNL

KAGC 242353Z AUTO 17006KT 10SM CLR 26/18 A3004 RMK AO2 SLP170 T02560178 10272 20250 55003

25 May 2020 00:24

Phone: 412-466-8968

Other Area AWOS: 42PN - KPIT - KAFJ - KLBE

TAF KAGC 242320Z 2500/2524 15004KT P6SM BKN250 TEMPO 2509/2511 4SM BR FM251500 15005KT P6SM SCT040